createdAt,value
2022-09-22T00:10:10.738Z,92.3
2022-09-22T00:24:43.928Z,88
2022-09-22T00:39:09.984Z,91.2
2022-09-22T00:53:38.357Z,92.1
2022-09-22T01:08:08.616Z,90.3
2022-09-22T01:22:38.581Z,91.3
2022-09-22T01:37:08.509Z,92.4
2022-09-22T01:51:37.671Z,94
2022-09-22T02:06:07.285Z,94.1
2022-09-22T02:20:38.279Z,93.1
2022-09-22T02:35:08.100Z,93.1
2022-09-22T02:49:37.034Z,94.5
2022-09-22T03:04:06.391Z,96.9
2022-09-22T03:18:35.891Z,97.5
2022-09-22T03:33:06.164Z,94.6
2022-09-22T03:47:36.941Z,96.6
2022-09-22T04:02:07.080Z,98.3
2022-09-22T04:16:38.172Z,98.2
2022-09-22T04:31:07.534Z,100
2022-09-22T04:45:40.085Z,98.4
2022-09-22T05:00:09.873Z,96.7
2022-09-22T05:14:38.945Z,100
2022-09-22T05:29:08.600Z,100
2022-09-22T05:43:38.750Z,100
2022-09-22T05:58:06.705Z,100
2022-09-22T06:12:37.525Z,100
2022-09-22T06:27:06.085Z,99.8
2022-09-22T06:41:36.852Z,100
2022-09-22T06:56:07.617Z,100
2022-09-22T07:10:39.090Z,100
2022-09-22T07:25:10.780Z,100
2022-09-22T07:39:42.853Z,99.8
2022-09-22T07:54:12.250Z,97
2022-09-22T08:08:43.690Z,98.6
2022-09-22T08:23:30.877Z,64.8
2022-09-22T08:38:13.537Z,54.5
2022-09-22T08:52:48.146Z,49.7
2022-09-22T09:07:15.572Z,49.4
2022-09-22T09:21:44.201Z,44.1
2022-09-22T09:36:17.940Z,45
2022-09-22T09:50:38.070Z,49.3
2022-09-22T10:05:07.631Z,48.2
2022-09-22T10:19:40.141Z,46.3
2022-09-22T10:34:10.819Z,46.8
2022-09-22T10:48:42.205Z,43.7
2022-09-22T11:03:13.720Z,43.9
2022-09-22T11:17:47.244Z,44.4
2022-09-22T11:32:19.204Z,44.3
2022-09-22T11:46:50.083Z,43.7
2022-09-22T12:01:15.142Z,46.7
2022-09-22T12:15:48.088Z,46.6
2022-09-22T12:30:19.255Z,46.8
2022-09-22T12:44:50.945Z,45
2022-09-22T12:59:21.959Z,44.8
2022-09-22T13:13:52.435Z,45.7
2022-09-22T13:28:21.809Z,45.3
2022-09-22T13:42:49.989Z,46.1
2022-09-22T13:57:30.667Z,46.1
2022-09-22T14:11:57.104Z,43.2
2022-09-22T14:26:27.785Z,42.9
2022-09-22T14:41:02.468Z,42.1
2022-09-22T14:55:29.739Z,43.5
2022-09-22T15:10:00.107Z,44.4
2022-09-22T15:24:31.781Z,43.4
2022-09-22T15:53:35.657Z,44
2022-09-22T16:08:02.266Z,47.1
2022-09-22T16:22:31.847Z,47
2022-09-22T16:37:02.131Z,49.4
2022-09-22T16:51:41.968Z,49.2
2022-09-22T17:06:04.326Z,49.9
2022-09-22T17:20:34.635Z,51.2
2022-09-22T17:35:04.708Z,52.2
2022-09-22T17:49:36.269Z,58.6
2022-09-22T18:04:03.844Z,60.7
2022-09-22T18:18:32.604Z,62.4
2022-09-22T18:33:00.436Z,65.9
2022-09-22T18:47:29.988Z,66.7
2022-09-22T19:01:57.341Z,68.7
2022-09-22T19:16:26.560Z,69.9
2022-09-22T19:30:56.673Z,72.2
2022-09-22T19:45:25.413Z,76.3
2022-09-22T19:59:54.448Z,78
2022-09-22T20:14:25.463Z,80.8
2022-09-22T20:28:53.895Z,81.5
2022-09-22T20:43:24.366Z,81.5
2022-09-22T20:57:53.807Z,80.1
2022-09-22T21:12:31.374Z,81.7
2022-09-22T21:26:56.229Z,83
2022-09-22T21:41:26.342Z,83.6
2022-09-22T21:55:56.731Z,83.4
2022-09-22T22:10:27.064Z,83.2
2022-09-22T22:24:56.523Z,83.6
2022-09-22T22:39:27.808Z,81.3
2022-09-22T22:54:00.618Z,83.2
2022-09-22T23:08:27.743Z,87.1
2022-09-22T23:22:56.522Z,89.2
2022-09-22T23:37:26.790Z,88.5
2022-09-22T23:51:57.121Z,89.3
